KEWK/EWK METAR and TAF weather

Enter ICAO airport designator
Station Type Date Time Source
KEWK METAR 2020/09/26 10:56 UTC NOAA

KEWK 261056Z AUTO 19016G20KT 10SM CLR 19/17 A2980 RMK AO2 SLP073 T01890167


Station Type Date Time Source
KEWK Decoded METAR 2020/09/26 10:56 UTC NOAA

Newton, Newton City/County Airport, KS, United States (KEWK) 38-03N 097-17W
Sep 26, 2020 - 06:56 AM EDT / 2020.09.26 1056 UTC
Wind: from the S (190 degrees) at 18 MPH (16 KT) gusting to 23 MPH (20 KT):0
Visibility: 10 mile(s):0
Sky conditions: clear
Temperature: 66.0 F (18.9 C)
Dew Point: 62.1 F (16.7 C)
Relative Humidity: 87%
Pressure (altimeter): 29.8 in. Hg (1009 hPa)
ob: KEWK 261056Z AUTO 19016G20KT 10SM CLR 19/17 A2980 RMK AO2 SLP073 T01890167
cycle: 11

Station Type Date Time Source
KEWK TAF UTC NOAA

Error!

Example: see airport list